Time;durP1;ratioP1;P1;durP2;ratioP2;P2;SDS_P1;SDS_P2;PMS_P1;PMS_P2;Temp;Humidity;BMP_temperature;BMP_pressure;BME280_temperature;BME280_humidity;BME280_pressure;Samples;Min_cycle;Max_cycle;Signal;HPM_P1;HPM_P2
2024/01/21 00:00:12;;;;;;;1.48;1.38;;;;;;;-1.22;65.85;94357.13;520872;28;837;-69
2024/01/21 00:00:28;;;;;;;1.52;1.42;;;;;;;-1.21;65.43;94357.88;521738;28;873;-68
2024/01/21 00:00:43;;;;;;;1.40;1.30;;;;;;;-1.21;65.83;94366.00;523252;28;892;-69
2024/01/21 00:00:59;;;;;;;1.40;1.30;;;;;;;-1.22;65.76;94367.22;522534;28;965;-69
2024/01/21 00:01:14;;;;;;;1.40;1.30;;;;;;;-1.35;65.75;94358.47;523006;28;790;-68
2024/01/21 00:01:32;;;;;;;1.02;1.02;;;;;;;-1.35;65.46;94358.47;522335;28;864;-69
2024/01/21 00:01:47;;;;;;;0.73;0.73;;;;;;;-1.34;65.18;94349.88;520777;28;1918;-69
2024/01/21 00:02:03;;;;;;;0.83;0.83;;;;;;;-1.34;65.28;94357.28;521030;28;774;-69
2024/01/21 00:02:21;;;;;;;1.27;0.97;;;;;;;-1.37;65.25;94347.31;520852;28;830;-69
2024/01/21 00:02:36;;;;;;;1.15;0.90;;;;;;;-1.33;65.15;94353.34;521331;28;1685;-69
2024/01/21 00:02:52;;;;;;;1.05;0.95;;;;;;;-1.31;65.35;94359.06;521517;28;822;-68
2024/01/21 00:03:07;;;;;;;0.90;0.80;;;;;;;-1.29;65.29;94362.84;522163;28;904;-68
2024/01/21 00:03:23;;;;;;;1.10;1.00;;;;;;;-1.29;65.13;94364.78;523023;28;774;-68
2024/01/21 00:03:38;;;;;;;1.20;1.10;;;;;;;-1.27;65.03;94365.84;522065;28;857;-68
2024/01/21 00:03:54;;;;;;;1.00;0.90;;;;;;;-1.25;64.91;94368.84;524679;28;1164;-69
2024/01/21 00:04:11;;;;;;;0.93;0.90;;;;;;;-1.23;65.03;94362.97;524420;28;984;-67
2024/01/21 00:04:26;;;;;;;1.02;0.95;;;;;;;-1.22;64.53;94361.78;520998;28;1449;-66
2024/01/21 00:04:42;;;;;;;1.20;1.10;;;;;;;-1.22;64.85;94370.66;521885;28;1068;-66
2024/01/21 00:04:57;;;;;;;1.70;1.20;;;;;;;-1.21;64.75;94363.31;520881;28;917;-66
2024/01/21 00:05:13;;;;;;;1.57;1.00;;;;;;;-1.20;64.79;94365.56;521127;28;1678;-66
2024/01/21 00:05:28;;;;;;;0.93;0.93;;;;;;;-1.18;64.75;94373.97;521748;28;767;-67
2024/01/21 00:05:44;;;;;;;1.25;1.15;;;;;;;-1.18;64.83;94367.81;522593;28;947;-67
2024/01/21 00:05:59;;;;;;;1.30;1.20;;;;;;;-1.16;65.28;94370.81;521296;28;1235;-67
2024/01/21 00:06:14;;;;;;;1.30;1.20;;;;;;;-1.19;64.76;94367.03;521389;28;1134;-66
2024/01/21 00:06:30;;;;;;;1.47;1.37;;;;;;;-1.19;64.94;94367.03;521584;28;707;-67
2024/01/21 00:06:45;;;;;;;1.10;1.10;;;;;;;-1.20;64.82;94365.56;523228;28;837;-67
2024/01/21 00:07:01;;;;;;;0.90;0.90;;;;;;;-1.19;64.95;94366.31;522114;28;1396;-67
2024/01/21 00:07:16;;;;;;;1.13;1.02;;;;;;;-1.40;64.87;94343.56;521447;28;813;-67
2024/01/21 00:07:32;;;;;;;1.30;1.20;;;;;;;-1.18;65.05;94363.16;522592;28;958;-67
2024/01/21 00:07:47;;;;;;;1.20;1.10;;;;;;;-1.17;64.84;94363.91;520883;28;857;-67
2024/01/21 00:08:03;;;;;;;1.08;0.90;;;;;;;-1.15;64.92;94373.06;521455;28;766;-67
2024/01/21 00:08:18;;;;;;;1.00;0.90;;;;;;;-1.13;64.72;94364.50;523036;28;873;-67
2024/01/21 00:08:33;;;;;;;1.10;0.95;;;;;;;-1.12;64.70;94368.72;523213;28;850;-67
2024/01/21 00:08:49;;;;;;;1.27;1.10;;;;;;;-1.15;64.87;94364.22;522986;28;885;-67
2024/01/21 00:09:04;;;;;;;1.20;1.10;;;;;;;-1.13;64.92;94361.78;522422;28;1009;-67
2024/01/21 00:09:20;;;;;;;1.03;1.00;;;;;;;-1.12;64.87;94366.00;522563;28;1539;-67
2024/01/21 00:09:35;;;;;;;1.13;0.95;;;;;;;-1.12;64.85;94366.00;522360;28;901;-67
2024/01/21 00:09:51;;;;;;;1.10;0.90;;;;;;;-1.13;64.41;94367.97;520816;28;1023;-67
2024/01/21 00:10:10;;;;;;;0.90;0.90;;;;;;;-1.14;64.96;94366.47;520916;28;826;-67
2024/01/21 00:10:26;;;;;;;1.10;1.00;;;;;;;-1.22;65.21;94362.53;521350;28;837;-67
2024/01/21 00:10:41;;;;;;;1.17;1.08;;;;;;;-1.16;65.03;94368.09;522665;28;1129;-67
2024/01/21 00:10:57;;;;;;;1.00;1.00;;;;;;;-1.18;65.67;94363.16;522735;28;965;-67
2024/01/21 00:11:12;;;;;;;1.10;1.10;;;;;;;-1.17;65.58;94361.19;522814;28;896;-66
2024/01/21 00:11:28;;;;;;;1.43;1.33;;;;;;;-1.15;65.54;94369.63;522407;28;1272;-67
2024/01/21 00:11:43;;;;;;;1.45;1.35;;;;;;;-1.16;65.94;94374.28;522802;28;845;-67
2024/01/21 00:11:58;;;;;;;1.40;1.30;;;;;;;-1.14;65.60;94363.00;522893;28;1623;-67
2024/01/21 00:12:14;;;;;;;1.50;1.13;;;;;;;-1.14;65.78;94371.13;521371;28;1619;-67
2024/01/21 00:12:29;;;;;;;1.53;1.10;;;;;;;-1.10;65.64;94369.00;522049;28;1138;-70
2024/01/21 00:12:45;;;;;;;1.27;1.10;;;;;;;-1.10;65.82;94369.00;522964;28;1001;-68
2024/01/21 00:13:00;;;;;;;1.08;1.02;;;;;;;-1.10;65.94;94364.34;523006;28;815;-67
2024/01/21 00:13:15;;;;;;;1.03;1.00;;;;;;;-1.11;65.88;94370.97;523147;28;762;-67
2024/01/21 00:13:31;;;;;;;1.30;1.20;;;;;;;-1.11;66.09;94362.84;523383;28;844;-68
2024/01/21 00:13:46;;;;;;;1.50;1.40;;;;;;;-1.11;66.31;94368.28;522422;28;1129;-68
2024/01/21 00:14:02;;;;;;;1.30;1.20;;;;;;;-1.14;66.53;94365.69;522077;28;1547;-68
2024/01/21 00:14:17;;;;;;;1.23;1.13;;;;;;;-1.18;66.67;94367.81;522612;28;887;-68
2024/01/21 00:14:35;;;;;;;1.30;1.20;;;;;;;-1.19;66.83;94367.03;523381;28;896;-68
2024/01/21 00:14:51;;;;;;;1.27;1.10;;;;;;;-1.22;66.74;94375.34;522212;28;1736;-67
2024/01/21 00:15:07;;;;;;;1.30;1.10;;;;;;;-1.23;66.63;94362.97;521679;28;1103;-68
2024/01/21 00:15:22;;;;;;;1.45;1.20;;;;;;;-1.23;66.53;94379.22;520963;28;818;-68
2024/01/21 00:15:38;;;;;;;1.20;1.10;;;;;;;-1.23;66.64;94380.00;523341;28;1192;-68
2024/01/21 00:15:53;;;;;;;1.00;1.00;;;;;;;-1.22;66.74;94372.63;522158;28;830;-68
2024/01/21 00:16:09;;;;;;;0.90;0.90;;;;;;;-1.21;66.56;94379.56;522520;28;787;-68
2024/01/21 00:16:24;;;;;;;0.90;0.90;;;;;;;-1.24;66.45;94373.09;523102;28;862;-68
2024/01/21 00:16:40;;;;;;;1.10;1.00;;;;;;;-1.22;66.43;94378.03;523347;28;778;-67
2024/01/21 00:16:55;;;;;;;1.23;1.13;;;;;;;-1.24;66.42;94380.44;522379;28;818;-68
2024/01/21 00:17:11;;;;;;;1.75;1.30;;;;;;;-1.21;66.68;94371.44;522452;28;1069;-67
2024/01/21 00:17:26;;;;;;;2.00;1.30;;;;;;;-1.20;66.55;94375.63;522258;28;1559;-68
2024/01/21 00:17:42;;;;;;;1.52;1.30;;;;;;;-1.19;66.26;94377.16;522342;28;774;-68
2024/01/21 00:17:57;;;;;;;1.50;1.40;;;;;;;-1.16;66.45;94373.53;522630;28;850;-68
2024/01/21 00:18:13;;;;;;;1.73;1.63;;;;;;;-1.15;66.67;94375.78;520997;28;802;-68
2024/01/21 00:18:29;;;;;;;2.40;2.00;;;;;;;-1.14;66.53;94371.88;521276;28;814;-68
2024/01/21 00:18:44;;;;;;;2.20;1.83;;;;;;;-1.13;66.23;94367.22;522589;28;874;-69
2024/01/21 00:19:00;;;;;;;1.98;1.77;;;;;;;-1.12;66.36;94376.84;523020;28;1000;-68
2024/01/21 00:19:15;;;;;;;3.43;2.27;;;;;;;-1.11;66.20;94378.34;523120;28;765;-68
2024/01/21 00:19:31;;;;;;;4.13;2.50;;;;;;;-1.10;66.38;94375.19;523165;28;1075;-68
2024/01/21 00:19:46;;;;;;;3.30;2.28;;;;;;;-1.07;66.21;94373.53;520962;28;995;-68
2024/01/21 00:20:02;;;;;;;2.72;2.03;;;;;;;-1.06;66.21;94380.47;520677;28;774;-68
2024/01/21 00:20:17;;;;;;;1.97;1.73;;;;;;;-1.08;66.41;94378.19;521331;28;1824;-68
2024/01/21 00:20:33;;;;;;;1.52;1.40;;;;;;;-1.10;66.76;94375.19;521531;28;869;-68
2024/01/21 00:20:48;;;;;;;2.43;1.40;;;;;;;-1.11;66.82;94376.41;521062;28;833;-68
2024/01/21 00:21:04;;;;;;;2.30;1.40;;;;;;;-1.16;66.89;94371.56;520953;28;774;-68
2024/01/21 00:21:19;;;;;;;1.45;1.35;;;;;;;-1.15;66.63;94388.59;525038;28;778;-67
2024/01/21 00:21:35;;;;;;;1.40;1.30;;;;;;;-1.17;66.50;94380.16;525764;28;856;-68
2024/01/21 00:21:51;;;;;;;1.33;1.23;;;;;;;-1.20;66.75;94386.47;526999;28;1922;-68
2024/01/21 00:22:06;;;;;;;1.37;1.27;;;;;;;-1.18;66.76;94384.06;527139;28;782;-68
2024/01/21 00:22:22;;;;;;;1.30;1.20;;;;;;;-1.18;66.91;94384.81;525491;28;813;-67
2024/01/21 00:22:40;;;;;;;1.05;0.98;;;;;;;-1.18;66.45;94379.41;526098;28;797;-69
2024/01/21 00:22:55;;;;;;;1.23;1.13;;;;;;;-1.17;66.63;94378.19;527109;28;853;-69
2024/01/21 00:23:10;;;;;;;1.30;1.20;;;;;;;-1.17;66.44;94380.91;525621;28;932;-68
2024/01/21 00:23:26;;;;;;;1.20;1.20;;;;;;;-1.15;66.58;94383.16;523027;28;790;-68
2024/01/21 00:23:41;;;;;;;1.33;1.25;;;;;;;-1.14;66.39;94377.28;523135;28;1084;-68
2024/01/21 00:23:57;;;;;;;1.23;1.20;;;;;;;-1.10;66.45;94379.84;523085;28;774;-67
2024/01/21 00:24:12;;;;;;;1.50;1.40;;;;;;;-1.08;66.37;94377.44;523091;28;849;-67
2024/01/21 00:24:28;;;;;;;1.60;1.50;;;;;;;-1.06;66.23;94380.47;523091;28;904;-68
2024/01/21 00:24:43;;;;;;;1.60;1.50;;;;;;;-1.07;66.46;94387.09;523168;28;1720;-68
2024/01/21 00:24:59;;;;;;;1.67;1.57;;;;;;;-1.10;66.65;94379.84;522180;28;822;-68
2024/01/21 00:25:14;;;;;;;1.60;1.50;;;;;;;-1.08;66.67;94386.31;522219;28;1136;-68
2024/01/21 00:25:29;;;;;;;1.45;1.35;;;;;;;-1.23;66.89;94361.03;521019;28;842;-68
2024/01/21 00:25:45;;;;;;;1.30;1.20;;;;;;;-1.19;66.90;94379.84;523306;28;931;-67
2024/01/21 00:26:00;;;;;;;1.50;1.40;;;;;;;-1.17;66.83;94378.19;521116;28;818;-68
2024/01/21 00:26:16;;;;;;;1.87;1.50;;;;;;;-1.16;66.95;94381.66;521048;28;888;-68
2024/01/21 00:26:31;;;;;;;1.92;1.35;;;;;;;-1.15;67.03;94383.16;521591;28;797;-68
2024/01/21 00:26:47;;;;;;;1.53;1.23;;;;;;;-1.15;66.57;94385.88;521503;28;943;-68
2024/01/21 00:27:02;;;;;;;1.45;1.35;;;;;;;-1.31;66.44;94359.81;521438;28;766;-68
2024/01/21 00:27:18;;;;;;;1.37;1.27;;;;;;;-1.16;66.51;94385.13;521004;28;849;-68
2024/01/21 00:27:33;;;;;;;1.27;1.17;;;;;;;-1.15;66.62;94383.16;520922;28;1595;-67
2024/01/21 00:27:49;;;;;;;1.40;1.30;;;;;;;-1.19;66.64;94377.16;521440;28;842;-68
2024/01/21 00:28:04;;;;;;;1.40;1.30;;;;;;;-1.24;66.59;94380.44;522553;28;841;-67
2024/01/21 00:28:20;;;;;;;1.30;1.20;;;;;;;-1.22;66.88;94378.03;521159;28;1058;-68
2024/01/21 00:28:35;;;;;;;1.35;1.20;;;;;;;-1.21;66.61;94379.56;523058;28;778;-68
2024/01/21 00:28:51;;;;;;;1.80;1.37;;;;;;;-1.20;66.85;94389.94;521009;28;794;-67
2024/01/21 00:29:06;;;;;;;1.70;1.30;;;;;;;-1.21;66.92;94380.28;521005;28;838;-68
2024/01/21 00:29:21;;;;;;;1.70;1.30;;;;;;;-1.21;67.10;94382.28;521010;28;778;-68
2024/01/21 00:29:37;;;;;;;1.67;1.50;;;;;;;-1.28;67.48;94377.13;522238;28;901;-67
2024/01/21 00:29:52;;;;;;;1.50;1.40;;;;;;;-1.31;67.56;94378.03;521006;28;770;-68
2024/01/21 00:30:08;;;;;;;1.50;1.40;;;;;;;-1.32;67.51;94384.66;522559;28;1156;-67
2024/01/21 00:30:23;;;;;;;1.73;1.33;;;;;;;-1.33;67.86;94380.44;521259;28;1749;-67
2024/01/21 00:30:39;;;;;;;1.60;1.37;;;;;;;-1.30;67.71;94387.69;523182;28;848;-68
2024/01/21 00:30:54;;;;;;;1.33;1.23;;;;;;;-1.29;67.63;94383.75;521126;28;845;-67
2024/01/21 00:31:10;;;;;;;1.17;1.07;;;;;;;-1.30;68.05;94384.97;521099;28;892;-68
2024/01/21 00:31:25;;;;;;;1.10;1.10;;;;;;;-1.29;68.12;94379.09;520899;28;916;-68
2024/01/21 00:31:40;;;;;;;1.30;1.20;;;;;;;-1.26;67.96;94377.44;522670;28;938;-68
2024/01/21 00:31:56;;;;;;;1.30;1.20;;;;;;;-1.28;68.21;94380.59;523037;28;842;-68
2024/01/21 00:32:11;;;;;;;1.23;1.20;;;;;;;-1.27;68.16;94384.03;523097;28;901;-68
2024/01/21 00:32:27;;;;;;;1.43;1.33;;;;;;;-1.32;68.25;94382.69;521584;28;1094;-68
2024/01/21 00:32:42;;;;;;;1.50;1.40;;;;;;;-1.31;68.19;94380.72;523195;28;762;-68
2024/01/21 00:32:57;;;;;;;1.57;1.47;;;;;;;-1.33;68.18;94380.44;522001;28;1607;-68
2024/01/21 00:33:13;;;;;;;1.55;1.45;;;;;;;-1.32;68.21;94385.41;522050;28;828;-68
2024/01/21 00:33:28;;;;;;;1.50;1.40;;;;;;;-1.31;68.21;94384.19;521901;28;799;-68
2024/01/21 00:33:44;;;;;;;1.42;1.33;;;;;;;-1.31;68.34;94384.19;523427;28;881;-68
2024/01/21 00:33:59;;;;;;;1.37;1.23;;;;;;;-1.33;68.43;94388.56;522061;28;865;-68
2024/01/21 00:34:15;;;;;;;1.60;1.30;;;;;;;-1.30;68.22;94382.25;521045;28;802;-68
2024/01/21 00:34:30;;;;;;;1.37;1.17;;;;;;;-1.29;67.99;94379.09;521258;28;846;-68
2024/01/21 00:34:45;;;;;;;1.10;1.10;;;;;;;-1.27;68.30;94378.63;523153;28;825;-68
2024/01/21 00:35:01;;;;;;;1.20;1.13;;;;;;;-1.25;68.18;94381.63;522248;28;1001;-68
2024/01/21 00:35:16;;;;;;;1.30;1.20;;;;;;;-1.26;68.24;94382.84;520937;28;881;-69
2024/01/21 00:35:32;;;;;;;1.58;1.48;;;;;;;-1.26;68.15;94383.63;520934;28;1733;-68
2024/01/21 00:35:47;;;;;;;1.57;1.47;;;;;;;-1.24;68.22;94388.56;521290;28;900;-68
2024/01/21 00:36:03;;;;;;;1.50;1.40;;;;;;;-1.23;68.31;94380.00;522740;28;814;-68
2024/01/21 00:36:18;;;;;;;2.03;1.60;;;;;;;-1.20;68.27;94391.88;520907;28;862;-68
2024/01/21 00:36:34;;;;;;;1.75;1.60;;;;;;;-1.23;68.45;94384.66;522114;28;919;-68
2024/01/21 00:36:49;;;;;;;1.43;1.33;;;;;;;-1.26;68.92;94382.84;520945;28;838;-68
2024/01/21 00:37:04;;;;;;;1.65;1.40;;;;;;;-1.26;68.98;94385.56;521048;28;834;-68
2024/01/21 00:37:20;;;;;;;2.10;1.50;;;;;;;-1.30;68.93;94382.25;521002;28;849;-68
2024/01/21 00:37:36;;;;;;;1.77;1.40;;;;;;;-1.32;69.59;94377.25;522234;28;790;-68
2024/01/21 00:37:51;;;;;;;1.40;1.30;;;;;;;-1.32;69.35;94381.94;520954;28;924;-68
2024/01/21 00:38:07;;;;;;;1.45;1.35;;;;;;;-1.32;69.45;94379.25;521196;28;1160;-68
2024/01/21 00:38:22;;;;;;;1.70;1.60;;;;;;;-1.32;69.47;94379.25;520906;28;845;-68
2024/01/21 00:38:41;;;;;;;1.88;1.67;;;;;;;-1.32;70.00;94379.25;520738;28;807;-68
2024/01/21 00:38:57;;;;;;;1.80;1.70;;;;;;;-1.29;69.88;94389.94;520716;28;850;-68
2024/01/21 00:39:12;;;;;;;1.57;1.47;;;;;;;-1.29;69.68;94383.75;520794;28;885;-68
2024/01/21 00:39:27;;;;;;;1.40;1.30;;;;;;;-1.31;69.59;94378.03;520866;28;1130;-68
2024/01/21 00:39:43;;;;;;;1.50;1.40;;;;;;;-1.37;69.55;94369.75;520434;28;1474;-68
2024/01/21 00:39:58;;;;;;;1.65;1.55;;;;;;;-1.32;69.60;94387.38;520857;28;799;-68
2024/01/21 00:40:14;;;;;;;1.70;1.60;;;;;;;-1.32;69.71;94381.94;520844;28;924;-68
2024/01/21 00:40:29;;;;;;;1.50;1.30;;;;;;;-1.31;69.62;94388.88;522696;28;1105;-67
2024/01/21 00:40:45;;;;;;;1.95;1.30;;;;;;;-1.28;69.57;94387.97;522879;28;833;-68
2024/01/21 00:41:00;;;;;;;1.93;1.40;;;;;;;-1.28;69.09;94390.69;520944;28;870;-68
2024/01/21 00:41:16;;;;;;;1.50;1.40;;;;;;;-1.42;69.03;94364.91;520776;28;927;-67
2024/01/21 00:41:31;;;;;;;1.70;1.60;;;;;;;-1.26;69.17;94386.31;522333;28;927;-68
2024/01/21 00:41:46;;;;;;;1.67;1.58;;;;;;;-1.23;68.99;94390.06;522695;28;1965;-68
2024/01/21 00:42:02;;;;;;;1.73;1.63;;;;;;;-1.21;69.30;94390.41;521293;28;798;-68
2024/01/21 00:42:18;;;;;;;1.52;1.42;;;;;;;-1.19;69.29;94391.44;520794;28;794;-68
2024/01/21 00:42:33;;;;;;;1.60;1.50;;;;;;;-1.18;69.49;94389.47;521596;28;1705;-68
2024/01/21 00:42:48;;;;;;;1.90;1.67;;;;;;;-1.16;69.36;94389.78;522285;28;909;-68
2024/01/21 00:43:04;;;;;;;1.97;1.70;;;;;;;-1.15;69.34;94389.31;522384;28;1130;-68
2024/01/21 00:43:19;;;;;;;1.98;1.80;;;;;;;-1.14;69.21;94387.38;522603;28;1359;-68
2024/01/21 00:43:35;;;;;;;1.87;1.70;;;;;;;-1.14;69.16;94392.78;522296;28;778;-67
2024/01/21 00:43:50;;;;;;;1.83;1.52;;;;;;;-1.12;69.13;94393.09;522773;28;767;-68
2024/01/21 00:44:06;;;;;;;1.60;1.40;;;;;;;-1.11;69.37;94400.78;522794;28;929;-68
2024/01/21 00:44:21;;;;;;;1.30;1.20;;;;;;;-1.10;69.04;94394.16;522712;28;1321;-68
2024/01/21 00:44:37;;;;;;;1.65;1.42;;;;;;;-1.08;68.88;94391.75;522266;28;991;-65
2024/01/21 00:44:52;;;;;;;1.90;1.70;;;;;;;-1.08;68.94;94394.44;522804;28;995;-68
2024/01/21 00:45:08;;;;;;;1.50;1.40;;;;;;;-1.07;69.01;94387.09;521955;28;1421;-68
2024/01/21 00:45:24;;;;;;;1.50;1.30;;;;;;;-1.07;68.92;94397.91;522104;28;1789;-67
2024/01/21 00:45:39;;;;;;;1.50;1.33;;;;;;;-1.11;68.94;94395.38;521583;28;814;-68
2024/01/21 00:45:55;;;;;;;1.50;1.40;;;;;;;-1.11;69.35;94389.19;520665;28;1170;-69
2024/01/21 00:46:10;;;;;;;1.50;1.40;;;;;;;-1.22;69.22;94372.63;522732;28;919;-68
2024/01/21 00:46:26;;;;;;;1.40;1.30;;;;;;;-1.08;69.03;94393.69;522856;28;1175;-69
2024/01/21 00:46:41;;;;;;;1.50;1.40;;;;;;;-1.07;68.91;94392.50;523256;28;884;-68
2024/01/21 00:46:56;;;;;;;1.87;1.60;;;;;;;-1.05;68.75;94398.22;522841;28;778;-67
2024/01/21 00:47:12;;;;;;;1.70;1.60;;;;;;;-1.05;68.80;94395.50;522796;28;906;-67
2024/01/21 00:47:27;;;;;;;1.50;1.40;;;;;;;-1.05;68.67;94398.22;521261;28;880;-67
2024/01/21 00:47:43;;;;;;;1.40;1.30;;;;;;;-1.04;68.99;94400.47;521293;28;1352;-67
2024/01/21 00:47:58;;;;;;;1.45;1.35;;;;;;;-1.03;68.91;94391.16;522650;28;1515;-67
2024/01/21 00:48:14;;;;;;;1.40;1.30;;;;;;;-1.07;68.78;94392.50;521597;28;1733;-67
2024/01/21 00:48:29;;;;;;;1.33;1.23;;;;;;;-1.08;68.89;94386.31;521641;28;1002;-67
2024/01/21 00:48:44;;;;;;;1.20;1.10;;;;;;;-1.16;69.07;94385.13;520880;28;838;-67
2024/01/21 00:49:00;;;;;;;1.10;1.10;;;;;;;-1.17;68.91;94391.72;522414;28;767;-67
2024/01/21 00:49:15;;;;;;;1.38;1.27;;;;;;;-1.17;68.91;94399.13;522616;28;891;-67
2024/01/21 00:49:31;;;;;;;1.37;1.27;;;;;;;-1.17;69.07;94389.03;523169;28;932;-68
2024/01/21 00:49:46;;;;;;;1.20;1.10;;;;;;;-1.14;68.94;94392.78;523125;28;790;-66
2024/01/21 00:50:03;;;;;;;1.60;1.13;;;;;;;-1.12;68.76;94388.44;522937;28;873;-67
2024/01/21 00:50:18;;;;;;;1.85;1.33;;;;;;;-1.10;68.45;94394.16;521378;28;842;-67
2024/01/21 00:50:34;;;;;;;1.30;1.20;;;;;;;-1.08;68.56;94393.69;521912;28;945;-68
2024/01/21 00:50:49;;;;;;;1.50;1.10;;;;;;;-1.07;68.49;94395.22;521980;28;1594;-68
2024/01/21 00:51:04;;;;;;;1.73;1.20;;;;;;;-1.10;68.32;94386.03;521596;28;904;-68
2024/01/21 00:51:20;;;;;;;1.30;1.20;;;;;;;-1.09;68.36;94387.53;520825;28;802;-67
2024/01/21 00:51:35;;;;;;;1.00;1.00;;;;;;;-1.08;68.33;94389.03;521991;28;858;-68
2024/01/21 00:51:52;;;;;;;1.20;1.10;;;;;;;-1.06;68.29;94391.31;522423;28;887;-67
2024/01/21 00:52:08;;;;;;;1.35;1.25;;;;;;;-1.04;68.00;94395.06;522884;28;837;-67
2024/01/21 00:52:23;;;;;;;1.20;1.10;;;;;;;-1.05;68.12;94388.16;522928;28;967;-67
2024/01/21 00:52:39;;;;;;;1.40;1.20;;;;;;;-1.08;67.93;94388.28;522571;28;1058;-68
2024/01/21 00:52:54;;;;;;;1.43;1.30;;;;;;;-1.11;68.24;94386.47;521870;28;766;-68
2024/01/21 00:53:10;;;;;;;1.25;1.15;;;;;;;-1.13;68.19;94389.66;520978;28;810;-68
2024/01/21 00:53:25;;;;;;;1.20;1.10;;;;;;;-1.14;68.37;94384.66;520951;28;918;-67
2024/01/21 00:53:41;;;;;;;1.20;1.10;;;;;;;-1.17;68.21;94393.72;522819;28;755;-68
2024/01/21 00:53:56;;;;;;;1.20;1.10;;;;;;;-1.17;68.47;94389.03;522982;28;817;-68
2024/01/21 00:54:12;;;;;;;1.10;1.00;;;;;;;-1.22;68.65;94389.63;522800;28;1018;-68
2024/01/21 00:54:28;;;;;;;0.93;0.90;;;;;;;-1.20;68.28;94386.47;523039;28;781;-68
2024/01/21 00:54:43;;;;;;;0.82;0.82;;;;;;;-1.21;68.53;94393.09;523350;28;912;-68
2024/01/21 00:54:59;;;;;;;1.02;1.02;;;;;;;-1.21;68.07;94387.69;522948;28;786;-68
2024/01/21 00:55:14;;;;;;;1.30;1.20;;;;;;;-1.22;68.20;94389.63;522877;28;1614;-67
2024/01/21 00:55:29;;;;;;;1.45;1.30;;;;;;;-1.22;68.65;94391.59;522164;28;801;-68
2024/01/21 00:55:45;;;;;;;1.63;1.23;;;;;;;-1.22;68.67;94386.94;522250;28;912;-67
2024/01/21 00:56:01;;;;;;;1.53;1.20;;;;;;;-1.20;68.59;94386.47;520884;28;845;-68
2024/01/21 00:56:16;;;;;;;1.30;1.20;;;;;;;-1.19;68.39;94390.69;521201;28;1425;-67
2024/01/21 00:56:32;;;;;;;1.20;1.10;;;;;;;-1.19;68.47;94385.28;521762;28;845;-67
2024/01/21 00:56:47;;;;;;;1.27;1.17;;;;;;;-1.18;68.79;94384.06;522981;28;774;-67
2024/01/21 00:57:03;;;;;;;1.58;1.30;;;;;;;-1.17;68.60;94388.28;522329;28;854;-68
2024/01/21 00:57:19;;;;;;;1.48;1.20;;;;;;;-1.19;68.65;94393.41;521155;28;986;-68
2024/01/21 00:57:35;;;;;;;1.25;1.08;;;;;;;-1.21;68.49;94384.97;522204;28;829;-68
2024/01/21 00:57:50;;;;;;;1.40;1.23;;;;;;;-1.22;68.27;94394.28;522940;28;794;-68
2024/01/21 00:58:06;;;;;;;1.25;1.13;;;;;;;-1.23;68.61;94390.06;521551;28;1504;-68
2024/01/21 00:58:21;;;;;;;1.20;1.10;;;;;;;-1.21;68.29;94390.41;522329;28;925;-68
2024/01/21 00:58:36;;;;;;;1.25;1.15;;;;;;;-1.18;68.34;94389.47;522787;28;850;-68
2024/01/21 00:58:52;;;;;;;1.13;1.03;;;;;;;-1.17;68.10;94386.31;522980;28;869;-68
2024/01/21 00:59:07;;;;;;;1.40;1.20;;;;;;;-1.17;68.42;94383.59;520889;28;1081;-67
2024/01/21 00:59:23;;;;;;;1.60;1.40;;;;;;;-1.17;68.31;94388.28;520898;28;870;-67
2024/01/21 00:59:38;;;;;;;1.53;1.43;;;;;;;-1.21;68.45;94382.28;522392;28;841;-68
2024/01/21 00:59:53;;;;;;;1.40;1.30;;;;;;;-1.20;68.28;94386.47;522927;28;857;-68
2024/01/21 01:00:09;;;;;;;1.63;1.33;;;;;;;-1.19;68.48;94385.28;523002;28;809;-68
2024/01/21 01:00:27;;;;;;;1.75;1.55;;;;;;;-1.19;68.45;94388.72;522991;28;825;-68
2024/01/21 01:00:42;;;;;;;1.50;1.40;;;;;;;-1.18;68.36;94384.81;521020;28;893;-67
2024/01/21 01:00:57;;;;;;;1.38;1.27;;;;;;;-1.19;68.42;94388.00;520917;28;782;-68
2024/01/21 01:01:13;;;;;;;1.77;1.20;;;;;;;-1.32;68.23;94368.41;520604;28;1177;-67
2024/01/21 01:01:29;;;;;;;1.75;1.27;;;;;;;-1.18;68.51;94390.25;522205;28;1650;-69
2024/01/21 01:01:44;;;;;;;1.60;1.50;;;;;;;-1.14;68.26;94387.38;522055;28;1926;-68
2024/01/21 01:01:59;;;;;;;1.50;1.40;;;;;;;-1.12;68.47;94387.69;520862;28;865;-68
2024/01/21 01:02:15;;;;;;;1.20;1.10;;;;;;;-1.12;68.29;94383.00;521848;28;1032;-67
2024/01/21 01:02:30;;;;;;;1.20;1.10;;;;;;;-1.10;67.98;94388.72;523133;28;786;-68
2024/01/21 01:02:46;;;;;;;1.23;1.13;;;;;;;-1.09;67.88;94386.78;523097;28;888;-67
2024/01/21 01:03:01;;;;;;;1.40;1.30;;;;;;;-1.07;67.91;94390.56;522820;28;953;-67
2024/01/21 01:03:17;;;;;;;1.27;1.17;;;;;;;-1.09;67.87;94382.13;522960;28;1106;-67
2024/01/21 01:03:34;;;;;;;1.20;1.10;;;;;;;-1.14;67.46;94382.72;523167;28;877;-70
2024/01/21 01:03:49;;;;;;;1.20;1.10;;;;;;;-1.18;67.62;94384.81;524153;28;1093;-69
2024/01/21 01:04:05;;;;;;;1.20;1.10;;;;;;;-1.18;67.73;94384.81;523675;28;1700;-68
2024/01/21 01:04:20;;;;;;;1.15;1.05;;;;;;;-1.18;67.75;94389.47;521831;28;856;-67
2024/01/21 01:04:36;;;;;;;0.87;0.87;;;;;;;-1.20;67.51;94383.75;521561;28;1016;-67
2024/01/21 01:04:51;;;;;;;0.90;0.90;;;;;;;-1.23;67.53;94382.69;520950;28;802;-67
2024/01/21 01:05:07;;;;;;;0.90;0.90;;;;;;;-1.21;67.59;94388.41;520839;28;864;-67
2024/01/21 01:05:23;;;;;;;0.90;0.90;;;;;;;-1.21;67.68;94391.13;520939;28;829;-67
2024/01/21 01:05:38;;;;;;;1.20;1.10;;;;;;;-1.22;67.68;94389.63;522456;28;817;-68
2024/01/21 01:05:54;;;;;;;1.00;1.00;;;;;;;-1.23;67.60;94390.81;523055;28;928;-67
2024/01/21 01:06:09;;;;;;;1.00;1.00;;;;;;;-1.32;67.80;94385.41;522500;28;1094;-67
2024/01/21 01:06:25;;;;;;;1.23;1.13;;;;;;;-1.34;68.33;94387.06;520920;28;806;-67
2024/01/21 01:06:40;;;;;;;1.30;1.20;;;;;;;-1.37;68.11;94387.97;522694;28;844;-67
2024/01/21 01:06:56;;;;;;;1.40;1.30;;;;;;;-1.35;68.45;94385.56;521177;28;1647;-67
2024/01/21 01:07:11;;;;;;;1.80;1.48;;;;;;;-1.35;68.47;94385.56;522897;28;911;-67
2024/01/21 01:07:27;;;;;;;1.50;1.40;;;;;;;-1.32;68.56;94381.94;521052;28;792;-67
2024/01/21 01:07:42;;;;;;;1.52;1.30;;;;;;;-1.30;68.69;94379.53;522905;28;950;-67
2024/01/21 01:07:57;;;;;;;1.63;1.30;;;;;;;-1.28;68.53;94387.97;521054;28;876;-67
2024/01/21 01:08:13;;;;;;;1.60;1.17;;;;;;;-1.27;68.16;94392.19;521017;28;767;-67
2024/01/21 01:08:28;;;;;;;1.40;1.20;;;;;;;-1.29;68.82;94391.88;520861;28;825;-67
2024/01/21 01:08:44;;;;;;;1.30;1.13;;;;;;;-1.28;68.96;94390.69;523351;28;821;-67
2024/01/21 01:08:59;;;;;;;1.60;1.00;;;;;;;-1.29;68.95;94389.16;521371;28;849;-67
2024/01/21 01:09:15;;;;;;;1.40;1.07;;;;;;;-1.29;68.81;94394.59;520943;28;873;-68
2024/01/21 01:09:30;;;;;;;1.30;1.20;;;;;;;-1.29;68.86;94389.94;522973;28;1117;-68
2024/01/21 01:09:46;;;;;;;1.40;1.30;;;;;;;-1.26;68.88;94393.69;523107;28;857;-68
2024/01/21 01:10:01;;;;;;;1.20;1.10;;;;;;;-1.26;68.71;94389.03;522989;28;829;-68
2024/01/21 01:10:16;;;;;;;1.50;1.17;;;;;;;-1.30;69.00;94384.97;522201;28;1646;-67
2024/01/21 01:10:32;;;;;;;1.58;1.30;;;;;;;-1.29;68.88;94389.16;522302;28;762;-67
2024/01/21 01:10:47;;;;;;;1.23;1.13;;;;;;;-1.57;68.79;94343.09;521914;28;857;-67
2024/01/21 01:11:03;;;;;;;1.52;1.40;;;;;;;-1.30;68.88;94384.97;522379;28;1029;-67
2024/01/21 01:11:20;;;;;;;1.83;1.57;;;;;;;-1.29;68.92;94383.75;522106;28;841;-69
2024/01/21 01:11:37;;;;;;;1.63;1.52;;;;;;;-1.25;68.93;94387.06;522163;28;912;-68
2024/01/21 01:11:53;;;;;;;1.63;1.52;;;;;;;-1.23;68.80;94387.34;522981;28;917;-68
2024/01/21 01:12:08;;;;;;;1.52;1.42;;;;;;;-1.24;68.86;94389.34;522723;28;872;-67
2024/01/21 01:12:24;;;;;;;1.50;1.40;;;;;;;-1.23;68.64;94387.34;521828;28;935;-67
2024/01/21 01:12:42;;;;;;;1.42;1.33;;;;;;;-1.21;68.83;94383.00;520972;28;986;-67
2024/01/21 01:12:58;;;;;;;1.40;1.30;;;;;;;-1.21;68.62;94384.97;521025;28;1612;-67
2024/01/21 01:13:13;;;;;;;1.42;1.33;;;;;;;-1.21;68.53;94379.56;521859;28;897;-67
2024/01/21 01:13:29;;;;;;;1.50;1.40;;;;;;;-1.19;68.59;94380.59;521670;28;853;-67
2024/01/21 01:13:44;;;;;;;1.63;1.53;;;;;;;-1.18;68.53;94373.97;523065;28;913;-67
2024/01/21 01:14:00;;;;;;;1.60;1.50;;;;;;;-1.14;68.55;94384.66;521837;28;758;-67
2024/01/21 01:14:15;;;;;;;1.50;1.40;;;;;;;-1.13;68.73;94381.53;521988;28;931;-67
2024/01/21 01:14:30;;;;;;;1.40;1.30;;;;;;;-1.10;68.74;94385.25;523169;28;762;-67
2024/01/21 01:14:46;;;;;;;1.45;1.35;;;;;;;-1.09;68.43;94384.06;523048;28;795;-67
2024/01/21 01:15:01;;;;;;;2.07;1.47;;;;;;;-1.12;67.99;94385.72;522234;28;786;-67
2024/01/21 01:15:18;;;;;;;1.77;1.27;;;;;;;-1.15;68.15;94380.47;520874;28;862;-67
2024/01/21 01:15:34;;;;;;;1.30;1.20;;;;;;;-1.11;68.19;94386.47;524809;28;1603;-69
2024/01/21 01:15:50;;;;;;;1.10;1.00;;;;;;;-1.14;67.86;94388.13;525160;28;914;-67